Time;durP1;ratioP1;P1;durP2;ratioP2;P2;SDS_P1;SDS_P2;PMS_P1;PMS_P2;Temp;Humidity;BMP_temperature;BMP_pressure;BME280_temperature;BME280_humidity;BME280_pressure;Samples;Min_cycle;Max_cycle;Signal;HPM_P1;HPM_P2
2022/05/21 00:01:21;;;;;;;3.73;2.63;;;14.70;99.90;;;;;;4197651;28;20290;-83
2022/05/21 00:03:24;;;;;;;16.23;2.90;;;14.70;99.90;;;;;;4198794;28;20607;-82
2022/05/21 00:05:29;;;;;;;4.20;3.30;;;14.80;99.90;;;;;;4194925;28;20195;-84
2022/05/21 00:07:31;;;;;;;8.47;3.17;;;14.70;99.90;;;;;;4195505;28;20736;-83
2022/05/21 00:09:32;;;;;;;5.40;2.80;;;14.70;99.90;;;;;;4197941;28;20652;-84
2022/05/21 00:11:34;;;;;;;4.70;2.90;;;14.70;99.90;;;;;;4196052;28;20215;-84
2022/05/21 00:13:36;;;;;;;4.90;2.97;;;14.70;99.90;;;;;;4194819;28;20656;-83
2022/05/21 00:15:38;;;;;;;9.67;3.10;;;14.70;99.90;;;;;;4202023;28;20307;-84
2022/05/21 00:17:40;;;;;;;6.40;3.13;;;14.80;99.90;;;;;;4196701;28;20231;-83
2022/05/21 00:19:43;;;;;;;4.87;2.60;;;14.70;99.90;;;;;;4197368;28;20666;-83
2022/05/21 00:21:45;;;;;;;8.70;3.07;;;14.70;99.90;;;;;;4193295;28;20203;-83
2022/05/21 00:23:47;;;;;;;3.63;2.50;;;14.70;99.90;;;;;;4189971;28;20203;-83
2022/05/21 00:25:51;;;;;;;3.17;2.43;;;14.70;99.90;;;;;;4197839;28;20215;-83
2022/05/21 00:27:53;;;;;;;4.53;1.90;;;14.70;99.90;;;;;;4194081;28;20238;-82
2022/05/21 00:29:54;;;;;;;4.37;2.10;;;14.70;99.90;;;;;;4197139;28;20255;-83
2022/05/21 00:31:56;;;;;;;4.53;2.00;;;14.70;99.90;;;;;;4196114;28;20237;-82
2022/05/21 00:33:58;;;;;;;4.10;2.10;;;14.70;99.90;;;;;;4198779;28;20272;-81
2022/05/21 00:36:01;;;;;;;3.23;2.17;;;14.70;99.90;;;;;;4193309;28;20215;-82
2022/05/21 00:38:03;;;;;;;4.53;2.00;;;14.70;99.90;;;;;;4197900;28;20726;-83
2022/05/21 00:40:09;;;;;;;2.67;1.57;;;14.70;99.90;;;;;;4196775;28;20566;-83
2022/05/21 00:42:11;;;;;;;5.13;1.80;;;14.60;99.90;;;;;;4196942;28;20202;-83
2022/05/21 00:44:13;;;;;;;6.90;2.00;;;14.70;99.90;;;;;;4193017;28;20268;-83
2022/05/21 00:46:17;;;;;;;3.20;1.87;;;14.60;99.90;;;;;;4194335;28;20259;-82
2022/05/21 00:48:19;;;;;;;3.00;1.40;;;14.60;99.90;;;;;;4196012;28;20248;-83
2022/05/21 00:50:25;;;;;;;5.23;1.40;;;14.50;99.90;;;;;;4195511;28;20202;-82
2022/05/21 00:52:29;;;;;;;2.47;1.60;;;14.60;99.90;;;;;;4195232;28;20304;-81
2022/05/21 00:54:34;;;;;;;5.07;1.60;;;14.50;99.90;;;;;;4195493;28;20233;-82
2022/05/21 00:56:43;;;;;;;3.87;1.57;;;14.50;99.90;;;;;;4195657;28;20214;-84
2022/05/21 01:01:07;;;;;;;2.97;1.27;;;14.50;99.90;;;;;;4190667;28;20230;-84
2022/05/21 01:03:10;;;;;;;1.70;1.50;;;14.50;99.90;;;;;;4193077;28;20210;-82
2022/05/21 01:05:15;;;;;;;2.77;1.33;;;14.50;99.90;;;;;;4195929;28;20301;-82
2022/05/21 01:07:18;;;;;;;4.07;1.33;;;14.40;99.90;;;;;;4196008;28;20241;-83
2022/05/21 01:09:21;;;;;;;1.63;1.10;;;14.40;99.90;;;;;;4195608;28;20216;-84
2022/05/21 01:11:23;;;;;;;3.20;1.07;;;14.30;99.90;;;;;;4191511;28;20198;-83
2022/05/21 01:13:28;;;;;;;3.63;1.10;;;14.20;99.90;;;;;;4197376;28;20735;-83
2022/05/21 01:15:34;;;;;;;1.90;1.10;;;14.20;99.90;;;;;;4196273;28;20282;-85
2022/05/21 01:17:36;;;;;;;2.13;1.10;;;14.20;99.90;;;;;;4191976;28;20711;-83
2022/05/21 01:19:53;;;;;;;2.00;1.07;;;14.20;99.90;;;;;;4192571;28;20206;-84
2022/05/21 01:21:55;;;;;;;2.40;1.60;;;14.10;99.90;;;;;;4194164;28;20210;-83
2022/05/21 01:23:58;;;;;;;2.13;1.60;;;14.10;99.90;;;;;;4195526;28;20659;-82
2022/05/21 01:26:01;;;;;;;1.73;1.27;;;14.10;99.90;;;;;;4193382;28;20210;-83
2022/05/21 01:28:04;;;;;;;1.93;1.50;;;14.10;99.90;;;;;;4194148;28;20260;-84
2022/05/21 01:30:08;;;;;;;3.47;1.40;;;14.00;99.90;;;;;;4195256;28;20264;-83
2022/05/21 01:32:17;;;;;;;3.67;1.63;;;14.00;99.90;;;;;;4192169;28;20210;-84
2022/05/21 01:34:20;;;;;;;2.30;1.53;;;14.00;99.90;;;;;;4193987;28;20294;-84
2022/05/21 01:36:22;;;;;;;4.53;1.90;;;13.90;99.90;;;;;;4191993;28;21174;-84
2022/05/21 01:38:26;;;;;;;3.70;1.80;;;14.00;99.90;;;;;;4194229;28;20285;-82
2022/05/21 01:40:30;;;;;;;4.13;2.17;;;14.10;99.90;;;;;;4192445;28;20217;-84
2022/05/21 01:42:33;;;;;;;6.07;2.70;;;13.90;99.90;;;;;;4196482;28;20884;-84
2022/05/21 01:44:40;;;;;;;3.33;2.43;;;13.90;99.90;;;;;;4197294;28;20213;-84
2022/05/21 01:46:41;;;;;;;6.60;2.70;;;13.80;99.90;;;;;;4198792;28;20756;-83
2022/05/21 01:48:44;;;;;;;3.87;2.33;;;13.80;99.90;;;;;;4219164;28;20533;-83
2022/05/21 01:50:46;;;;;;;6.03;2.60;;;13.80;99.90;;;;;;4210054;28;20213;-80
2022/05/21 01:52:48;;;;;;;5.90;2.90;;;13.80;99.90;;;;;;4209519;28;20209;-84
2022/05/21 01:54:49;;;;;;;3.57;2.30;;;13.80;99.90;;;;;;4201687;28;20223;-84
2022/05/21 01:56:52;;;;;;;5.67;2.63;;;13.70;99.90;;;;;;4193181;28;20638;-84
2022/05/21 01:58:55;;;;;;;6.63;3.23;;;13.70;99.90;;;;;;4190330;28;20256;-83
2022/05/21 02:00:57;;;;;;;6.03;2.90;;;13.60;99.90;;;;;;4193735;28;20716;-83
2022/05/21 02:02:59;;;;;;;4.23;2.80;;;13.60;99.90;;;;;;4191609;28;20594;-82
2022/05/21 02:05:01;;;;;;;5.17;2.83;;;13.60;99.90;;;;;;4195877;28;20208;-84
2022/05/21 02:07:02;;;;;;;6.37;2.80;;;13.60;99.90;;;;;;4206845;28;20232;-83
2022/05/21 02:09:04;;;;;;;7.87;3.20;;;13.60;99.90;;;;;;4192647;28;20201;-84
2022/05/21 02:11:06;;;;;;;6.43;3.30;;;13.60;99.90;;;;;;4210804;28;20219;-84
2022/05/21 02:13:14;;;;;;;5.57;3.27;;;13.60;99.90;;;;;;4195702;28;20611;-83
2022/05/21 02:15:16;;;;;;;10.73;3.60;;;14.20;99.90;;;;;;4193860;28;20227;-84
2022/05/21 02:17:18;;;;;;;5.97;3.40;;;13.50;99.90;;;;;;4190355;28;20584;-84
2022/05/21 02:19:19;;;;;;;5.90;3.63;;;13.50;99.90;;;;;;4195163;28;20209;-83
2022/05/21 02:21:22;;;;;;;8.73;3.73;;;13.50;99.90;;;;;;4193207;28;20731;-83
2022/05/21 02:23:24;;;;;;;5.53;3.57;;;13.50;99.90;;;;;;4192051;28;20210;-83
2022/05/21 02:25:26;;;;;;;6.50;3.43;;;13.60;99.90;;;;;;4195943;28;20209;-84
2022/05/21 02:27:28;;;;;;;5.53;3.67;;;13.50;99.90;;;;;;4194724;28;20231;-84
2022/05/21 02:29:31;;;;;;;5.63;3.97;;;13.60;99.90;;;;;;4196374;28;20219;-84
2022/05/21 02:31:33;;;;;;;7.47;3.43;;;13.50;99.90;;;;;;4190576;28;20212;-84
2022/05/21 02:33:38;;;;;;;5.57;3.53;;;13.90;99.90;;;;;;4194684;28;20201;-84
2022/05/21 02:35:41;;;;;;;7.83;4.00;;;13.50;99.90;;;;;;4196115;28;20206;-84
2022/05/21 02:40:04;;;;;;;6.20;3.70;;;13.80;99.90;;;;;;4210425;28;20302;-83
2022/05/21 02:42:43;;;;;;;7.20;3.80;;;13.50;99.90;;;;;;4195229;28;20209;-83
2022/05/21 02:44:32;;;;;;;7.57;3.90;;;13.40;99.90;;;;;;4191079;28;20229;-82
2022/05/21 02:46:34;;;;;;;5.63;3.90;;;13.40;99.90;;;;;;4194138;28;20225;-83
2022/05/21 02:48:35;;;;;;;4.77;3.70;;;13.50;99.90;;;;;;4194409;28;20705;-83
2022/05/21 02:50:38;;;;;;;7.40;3.63;;;13.40;99.90;;;;;;4194933;28;20581;-82
2022/05/21 02:52:39;;;;;;;5.67;3.90;;;13.40;99.90;;;;;;4193531;28;20232;-84
2022/05/21 02:54:41;;;;;;;6.77;4.20;;;13.40;99.90;;;;;;4194519;28;20293;-83
2022/05/21 02:56:48;;;;;;;6.13;3.80;;;13.40;99.90;;;;;;4191930;28;20498;-83
2022/05/21 02:58:53;;;;;;;6.53;3.93;;;13.40;99.90;;;;;;4195281;28;20216;-83
2022/05/21 03:00:56;;;;;;;8.97;3.70;;;13.40;99.90;;;;;;4195162;28;20242;-84
2022/05/21 03:02:59;;;;;;;6.33;3.53;;;13.30;99.90;;;;;;4195409;28;20205;-83
2022/05/21 03:05:02;;;;;;;7.23;3.73;;;13.30;99.90;;;;;;4195572;28;20229;-83
2022/05/21 03:07:04;;;;;;;3.93;3.10;;;13.30;99.90;;;;;;4195740;28;20225;-83
2022/05/21 03:11:26;;;;;;;5.37;3.60;;;13.20;99.90;;;;;;4193227;28;20197;-83
2022/05/21 03:13:28;;;;;;;7.90;4.13;;;13.30;99.90;;;;;;4193382;28;20293;-81
2022/05/21 03:15:33;;;;;;;5.50;3.80;;;13.20;99.90;;;;;;4191696;28;20212;-83
2022/05/21 03:17:36;;;;;;;6.17;4.00;;;13.20;99.90;;;;;;4194989;28;20283;-83
2022/05/21 03:19:37;;;;;;;6.10;4.07;;;13.20;99.90;;;;;;4198546;28;20201;-82
2022/05/21 03:21:39;;;;;;;5.80;3.97;;;13.20;99.90;;;;;;4197696;28;20213;-83
2022/05/21 03:23:41;;;;;;;6.83;3.77;;;13.20;99.90;;;;;;4198356;28;20220;-83
2022/05/21 03:25:43;;;;;;;12.20;4.70;;;13.30;99.90;;;;;;4197333;28;20201;-81
2022/05/21 03:27:45;;;;;;;7.67;3.30;;;13.20;99.90;;;;;;4196903;28;20278;-82
2022/05/21 03:29:46;;;;;;;6.33;3.73;;;13.20;99.90;;;;;;4214508;28;20216;-82
2022/05/21 03:31:48;;;;;;;6.83;3.47;;;13.10;99.90;;;;;;4196064;28;20251;-83
2022/05/21 03:33:51;;;;;;;6.47;3.50;;;13.10;99.90;;;;;;4199158;28;20212;-83
2022/05/21 03:35:53;;;;;;;5.80;3.40;;;13.10;99.90;;;;;;4199218;28;20213;-81
2022/05/21 03:37:55;;;;;;;5.57;2.80;;;13.10;99.90;;;;;;4198843;28;20690;-81
2022/05/21 03:39:57;;;;;;;5.17;2.90;;;13.10;99.90;;;;;;4195725;28;20210;-82
2022/05/21 03:41:59;;;;;;;7.17;2.50;;;13.10;99.90;;;;;;4198036;28;20196;-82
2022/05/21 03:44:01;;;;;;;5.63;2.50;;;13.00;99.90;;;;;;4199636;28;20304;-82
2022/05/21 03:46:04;;;;;;;5.03;2.47;;;13.00;99.90;;;;;;4195241;28;20206;-81
2022/05/21 03:48:06;;;;;;;11.70;2.20;;;13.10;99.90;;;;;;4199770;28;20226;-82
2022/05/21 03:50:11;;;;;;;4.93;2.03;;;13.00;99.90;;;;;;4197134;28;20202;-83
2022/05/21 03:52:13;;;;;;;4.87;2.30;;;13.00;99.90;;;;;;4197910;28;20208;-81
2022/05/21 03:54:14;;;;;;;9.57;2.10;;;13.00;99.90;;;;;;4193141;28;20702;-83
2022/05/21 03:56:16;;;;;;;3.90;1.77;;;13.00;99.90;;;;;;4198256;28;20212;-81
2022/05/21 03:58:18;;;;;;;3.20;1.93;;;13.00;99.90;;;;;;4198388;28;20255;-82
2022/05/21 04:00:21;;;;;;;2.30;1.70;;;12.90;99.90;;;;;;4198965;28;20201;-81
2022/05/21 04:02:22;;;;;;;5.37;1.90;;;12.90;99.90;;;;;;4195971;28;20269;-82
2022/05/21 04:04:24;;;;;;;5.03;2.03;;;12.90;99.90;;;;;;4197887;28;20612;-82
2022/05/21 04:06:27;;;;;;;3.43;1.90;;;12.90;99.90;;;;;;4196339;28;20334;-82
2022/05/21 04:08:29;;;;;;;5.37;1.80;;;12.90;99.90;;;;;;4196330;28;20215;-83
2022/05/21 04:10:31;;;;;;;4.10;1.70;;;12.90;99.90;;;;;;4198732;28;20230;-83
2022/05/21 04:12:33;;;;;;;3.30;1.90;;;12.90;99.90;;;;;;4196996;28;20212;-82
2022/05/21 04:14:35;;;;;;;6.70;1.80;;;12.90;99.90;;;;;;4194384;28;20248;-81
2022/05/21 04:16:36;;;;;;;4.77;2.17;;;12.90;99.90;;;;;;4196551;28;20235;-79
2022/05/21 04:18:38;;;;;;;2.40;1.90;;;12.90;99.90;;;;;;4197033;28;20232;-81
2022/05/21 04:20:40;;;;;;;2.97;2.13;;;12.90;99.90;;;;;;4195000;28;20210;-83
2022/05/21 04:22:46;;;;;;;3.10;1.63;;;12.90;99.90;;;;;;4198602;28;20708;-82
2022/05/21 04:24:48;;;;;;;3.73;1.87;;;12.90;99.90;;;;;;4197603;28;20201;-82
2022/05/21 04:26:50;;;;;;;3.00;2.10;;;12.90;99.90;;;;;;4196994;28;20650;-82
2022/05/21 04:28:52;;;;;;;3.73;1.67;;;12.90;99.90;;;;;;4211772;28;20668;-82
2022/05/21 04:30:54;;;;;;;4.03;2.10;;;12.90;99.90;;;;;;4199624;28;20299;-81
2022/05/21 04:32:58;;;;;;;6.00;2.40;;;12.90;99.90;;;;;;4199165;28;20209;-82
2022/05/21 04:35:00;;;;;;;3.10;2.00;;;12.80;99.90;;;;;;4192248;28;20229;-81
2022/05/21 04:37:01;;;;;;;6.33;2.30;;;12.90;99.90;;;;;;4199037;28;20232;-82
2022/05/21 04:39:05;;;;;;;6.53;2.47;;;12.80;99.90;;;;;;4198394;28;20231;-81
2022/05/21 04:41:07;;;;;;;5.90;2.10;;;12.80;99.90;;;;;;4201400;28;20307;-81
2022/05/21 04:43:09;;;;;;;4.10;2.27;;;12.80;99.90;;;;;;4196166;28;20651;-80
2022/05/21 04:45:12;;;;;;;6.23;2.17;;;12.80;99.90;;;;;;4199560;28;20197;-81
2022/05/21 04:47:14;;;;;;;3.43;1.97;;;12.80;99.90;;;;;;4199875;28;20224;-81
2022/05/21 04:49:16;;;;;;;5.30;2.13;;;12.80;99.90;;;;;;4201194;28;20209;-80
2022/05/21 04:51:18;;;;;;;4.50;2.00;;;13.10;99.90;;;;;;4200084;28;20200;-82
2022/05/21 04:53:22;;;;;;;3.43;2.10;;;12.80;99.90;;;;;;4200410;28;20197;-81
2022/05/21 04:55:25;;;;;;;3.97;1.80;;;12.80;99.90;;;;;;4199776;28;20225;-82
2022/05/21 04:57:27;;;;;;;4.23;2.00;;;12.90;99.90;;;;;;4198426;28;20788;-82
2022/05/21 04:59:29;;;;;;;5.43;2.40;;;12.90;99.90;;;;;;4197879;28;20196;-81
2022/05/21 05:01:31;;;;;;;2.80;1.97;;;12.80;99.90;;;;;;4198941;28;20692;-81
2022/05/21 05:03:33;;;;;;;7.13;1.90;;;12.80;99.90;;;;;;4196525;28;20629;-81
2022/05/21 05:05:35;;;;;;;2.17;1.77;;;12.80;99.90;;;;;;4202363;28;20314;-81
2022/05/21 05:07:38;;;;;;;3.53;1.73;;;12.80;99.90;;;;;;4222489;22;20315;-81
2022/05/21 05:09:41;;;;;;;3.80;1.90;;;12.80;99.90;;;;;;4182756;28;20277;-81
2022/05/21 05:11:44;;;;;;;3.57;2.10;;;12.80;99.90;;;;;;4174401;28;20564;-81
2022/05/21 05:13:46;;;;;;;5.53;2.07;;;12.70;99.90;;;;;;4180355;28;20216;-81
2022/05/21 05:15:48;;;;;;;3.20;1.60;;;12.70;99.90;;;;;;4199347;28;20225;-81
2022/05/21 05:17:49;;;;;;;3.83;1.80;;;12.60;99.90;;;;;;4199246;28;20222;-81
2022/05/21 05:19:54;;;;;;;4.40;1.67;;;12.60;99.90;;;;;;4198956;28;20665;-81
2022/05/21 05:21:56;;;;;;;4.07;1.53;;;12.60;99.90;;;;;;4213986;28;20217;-81
2022/05/21 05:23:58;;;;;;;3.37;1.87;;;12.60;99.90;;;;;;4197397;28;20664;-81
2022/05/21 05:26:00;;;;;;;3.03;1.50;;;12.60;99.90;;;;;;4192157;28;20631;-81
2022/05/21 05:28:03;;;;;;;4.00;1.67;;;12.60;99.90;;;;;;4214172;28;20292;-81
2022/05/21 05:30:06;;;;;;;3.57;1.57;;;12.60;99.90;;;;;;4208617;28;20243;-81
2022/05/21 05:32:09;;;;;;;3.80;1.67;;;12.60;99.90;;;;;;4194480;28;20215;-81
2022/05/21 05:34:11;;;;;;;3.60;1.80;;;12.60;99.90;;;;;;4196664;28;20212;-80
2022/05/21 05:36:13;;;;;;;9.70;1.90;;;12.60;99.90;;;;;;4197168;28;20229;-81
2022/05/21 05:38:15;;;;;;;3.40;1.50;;;12.60;99.90;;;;;;4212014;28;20707;-81
2022/05/21 05:40:20;;;;;;;2.07;1.53;;;12.70;99.90;;;;;;4198693;28;20294;-81
2022/05/21 05:42:21;;;;;;;5.17;1.60;;;12.70;99.90;;;;;;4191141;28;20593;-81
2022/05/21 05:44:25;;;;;;;7.70;2.00;;;12.70;99.90;;;;;;4195744;28;20206;-80
2022/05/21 05:46:27;;;;;;;2.93;1.70;;;12.60;99.90;;;;;;4193191;28;20303;-81
2022/05/21 05:48:29;;;;;;;3.97;1.70;;;12.80;99.90;;;;;;4195652;28;20248;-81
2022/05/21 05:50:31;;;;;;;3.93;1.73;;;12.80;99.90;;;;;;4198517;28;20243;-81
2022/05/21 05:52:33;;;;;;;6.20;2.00;;;12.80;99.90;;;;;;4195361;28;20209;-81
2022/05/21 05:54:36;;;;;;;5.10;2.30;;;12.80;99.90;;;;;;4197777;28;20216;-80
2022/05/21 05:56:38;;;;;;;2.13;1.50;;;12.90;99.90;;;;;;4193933;28;20661;-81
2022/05/21 06:01:01;;;;;;;5.33;2.27;;;12.90;99.90;;;;;;4197265;28;20677;-80
2022/05/21 06:03:03;;;;;;;4.57;1.80;;;12.90;99.90;;;;;;4194096;28;20704;-81
2022/05/21 06:05:07;;;;;;;4.80;1.50;;;12.90;99.90;;;;;;4198707;28;20216;-81
2022/05/21 06:07:12;;;;;;;4.13;2.00;;;12.90;99.90;;;;;;4197382;28;20327;-81
2022/05/21 06:09:14;;;;;;;3.50;1.90;;;13.00;99.90;;;;;;4195019;28;20216;-80
2022/05/21 06:11:17;;;;;;;6.90;2.20;;;13.00;99.90;;;;;;4200232;28;20333;-81
2022/05/21 06:13:19;;;;;;;8.60;2.20;;;13.00;99.90;;;;;;4213907;28;20280;-81
2022/05/21 06:15:21;;;;;;;5.57;2.57;;;13.10;99.90;;;;;;4199389;28;20233;-80
2022/05/21 06:17:24;;;;;;;4.07;2.43;;;13.10;99.90;;;;;;4197912;28;20316;-80
2022/05/21 06:19:26;;;;;;;3.07;1.90;;;13.10;99.90;;;;;;4197076;28;20236;-81
2022/05/21 06:21:27;;;;;;;3.40;1.87;;;13.10;99.90;;;;;;4198606;28;20208;-81
2022/05/21 06:23:30;;;;;;;3.50;1.80;;;13.20;99.90;;;;;;4210839;28;20715;-80
2022/05/21 06:25:33;;;;;;;4.03;2.07;;;13.20;99.90;;;;;;4198764;28;20208;-80
2022/05/21 06:27:35;;;;;;;4.37;2.23;;;13.20;99.90;;;;;;4199560;28;20244;-81
2022/05/21 06:29:37;;;;;;;11.57;2.80;;;13.20;99.90;;;;;;4199809;28;20239;-81
2022/05/21 06:31:39;;;;;;;7.40;2.43;;;13.30;99.90;;;;;;4212260;28;20250;-81
2022/05/21 06:33:42;;;;;;;5.60;2.90;;;13.30;99.90;;;;;;4196378;28;20209;-81
2022/05/21 06:35:44;;;;;;;4.17;2.80;;;13.30;99.90;;;;;;4217325;28;20222;-81
2022/05/21 06:37:46;;;;;;;4.90;2.83;;;13.40;99.90;;;;;;4200741;28;20697;-80
2022/05/21 06:39:48;;;;;;;7.73;2.63;;;13.40;99.90;;;;;;4196148;28;20205;-81
2022/05/21 06:41:50;;;;;;;4.73;2.90;;;13.40;99.90;;;;;;4197481;28;20204;-80
2022/05/21 06:43:51;;;;;;;6.23;3.07;;;13.50;99.90;;;;;;4200523;28;20228;-81
2022/05/21 06:45:54;;;;;;;4.20;2.87;;;13.60;99.90;;;;;;4197884;28;20194;-80
2022/05/21 06:48:00;;;;;;;5.40;3.17;;;13.50;99.90;;;;;;4198339;28;20252;-81
2022/05/21 06:50:05;;;;;;;6.43;2.67;;;13.50;99.90;;;;;;4194902;28;20243;-81
2022/05/21 06:52:07;;;;;;;5.90;2.70;;;13.60;99.90;;;;;;4195171;28;20658;-81
2022/05/21 06:54:09;;;;;;;5.50;2.20;;;13.60;99.90;;;;;;4191366;28;20300;-81
2022/05/21 06:56:14;;;;;;;6.80;2.40;;;13.60;99.90;;;;;;4198688;28;20236;-80
2022/05/21 06:58:16;;;;;;;4.23;2.53;;;13.50;99.90;;;;;;4200032;28;20249;-80
2022/05/21 07:00:21;;;;;;;5.97;2.40;;;13.70;99.90;;;;;;4201142;28;20235;-80
2022/05/21 07:02:23;;;;;;;5.17;2.03;;;13.70;99.90;;;;;;4204691;28;20320;-80
2022/05/21 07:09:02;;;;;;;6.17;2.27;;;13.80;99.90;;;;;;4200052;28;20204;-80
2022/05/21 07:11:04;;;;;;;7.47;2.37;;;13.80;99.90;;;;;;4201165;28;20251;-80
2022/05/21 07:13:05;;;;;;;4.70;2.20;;;13.80;99.90;;;;;;4215973;28;20596;-81
2022/05/21 07:15:08;;;;;;;8.80;2.23;;;13.80;99.90;;;;;;4195008;28;20300;-80
2022/05/21 07:17:10;;;;;;;4.07;1.90;;;13.90;99.90;;;;;;4215772;28;20808;-81
2022/05/21 07:19:12;;;;;;;4.30;2.27;;;13.90;99.90;;;;;;4202583;28;20638;-80
2022/05/21 07:21:15;;;;;;;5.00;2.33;;;13.70;99.90;;;;;;4214636;28;20216;-80
2022/05/21 07:23:18;;;;;;;6.37;2.00;;;14.00;99.90;;;;;;4200529;28;20308;-80
2022/05/21 07:25:23;;;;;;;8.43;2.00;;;14.10;99.90;;;;;;4216134;28;20459;-81
2022/05/21 07:27:24;;;;;;;3.03;1.80;;;14.00;99.90;;;;;;4200543;28;20253;-80
2022/05/21 07:29:26;;;;;;;6.23;2.20;;;14.10;99.90;;;;;;4216929;28;20726;-81
2022/05/21 07:31:29;;;;;;;3.37;2.10;;;14.30;99.90;;;;;;4199561;28;20203;-80
2022/05/21 07:33:31;;;;;;;4.23;1.63;;;14.10;99.90;;;;;;4199497;28;20243;-81
2022/05/21 07:35:34;;;;;;;5.33;2.30;;;14.20;99.90;;;;;;4192378;28;20229;-80
2022/05/21 07:37:36;;;;;;;5.37;2.07;;;14.30;99.90;;;;;;4205511;28;20226;-81
2022/05/21 07:39:39;;;;;;;5.90;2.10;;;14.40;99.90;;;;;;4196017;28;20206;-81
2022/05/21 07:41:41;;;;;;;7.20;2.30;;;14.40;99.90;;;;;;4196447;28;20201;-80
2022/05/21 07:43:43;;;;;;;2.80;2.00;;;14.50;99.90;;;;;;4195710;28;20209;-80
2022/05/21 07:45:46;;;;;;;3.67;2.37;;;14.50;99.90;;;;;;4199858;28;20300;-81
2022/05/21 07:47:49;;;;;;;5.30;2.30;;;14.50;99.90;;;;;;4200237;28;20312;-80
2022/05/21 07:49:51;;;;;;;5.60;2.60;;;14.50;99.90;;;;;;4215401;28;20201;-81
2022/05/21 07:51:53;;;;;;;3.73;2.57;;;14.60;99.90;;;;;;4199104;28;20647;-80
2022/05/21 07:53:55;;;;;;;4.70;2.10;;;14.50;99.90;;;;;;4191944;28;20210;-81
2022/05/21 07:55:58;;;;;;;6.83;2.30;;;14.60;99.90;;;;;;4196893;28;20228;-81
2022/05/21 07:58:00;;;;;;;6.20;2.10;;;14.60;99.90;;;;;;4197217;28;20230;-81
2022/05/21 08:00:02;;;;;;;2.53;1.93;;;14.70;99.90;;;;;;4196495;28;20219;-81
2022/05/21 08:02:04;;;;;;;3.30;2.27;;;14.80;99.90;;;;;;4191980;28;20211;-81
2022/05/21 08:04:06;;;;;;;4.90;2.47;;;14.80;99.90;;;;;;4189468;28;20209;-80
2022/05/21 08:06:07;;;;;;;3.03;2.17;;;14.90;99.90;;;;;;4195174;28;20203;-81
2022/05/21 08:08:10;;;;;;;4.27;2.37;;;15.00;99.90;;;;;;4196412;28;20251;-81
2022/05/21 08:10:12;;;;;;;4.03;2.13;;;15.10;99.90;;;;;;4206659;28;20596;-81
2022/05/21 08:12:15;;;;;;;6.63;2.10;;;15.20;99.90;;;;;;4194403;28;20268;-81
2022/05/21 08:14:18;;;;;;;3.47;2.50;;;15.30;99.90;;;;;;4194822;28;20206;-81
2022/05/21 08:16:22;;;;;;;4.67;2.67;;;15.40;99.90;;;;;;4188155;28;20234;-81
2022/05/21 08:18:27;;;;;;;3.67;2.50;;;15.40;99.90;;;;;;4197871;28;20223;-81
2022/05/21 08:20:29;;;;;;;2.97;2.50;;;15.50;99.90;;;;;;4194172;28;20201;-81
2022/05/21 08:27:10;;;;;;;4.17;2.80;;;15.40;99.90;;;;;;4196885;28;20214;-81
2022/05/21 08:29:13;;;;;;;4.40;2.50;;;15.40;99.90;;;;;;4196484;28;20214;-81
2022/05/21 08:31:15;;;;;;;9.37;2.90;;;15.40;99.90;;;;;;4193096;28;20206;-81
2022/05/21 08:33:19;;;;;;;4.77;2.70;;;15.40;99.90;;;;;;4196298;28;20283;-81
2022/05/21 08:35:21;;;;;;;5.53;2.70;;;15.60;99.90;;;;;;4192093;28;20794;-81
2022/05/21 08:37:23;;;;;;;3.67;2.60;;;15.50;99.90;;;;;;4212982;28;20230;-81
2022/05/21 08:39:25;;;;;;;7.07;2.70;;;15.70;99.90;;;;;;4193533;28;20204;-81
2022/05/21 08:41:29;;;;;;;4.73;2.63;;;15.70;99.90;;;;;;4193113;28;20235;-81
2022/05/21 08:43:40;;;;;;;6.73;2.73;;;15.80;99.90;;;;;;4191381;28;20308;-81
2022/05/21 08:45:56;;;;;;;4.47;3.00;;;15.90;99.90;;;;;;4194702;28;20299;-81
2022/05/21 08:48:01;;;;;;;4.17;2.50;;;15.90;99.90;;;;;;4196492;28;20224;-81
2022/05/21 08:50:09;;;;;;;5.17;2.60;;;16.10;99.90;;;;;;4193740;28;20206;-81
2022/05/21 08:52:18;;;;;;;5.13;3.03;;;16.10;99.90;;;;;;4211700;28;20218;-81
2022/05/21 08:54:25;;;;;;;6.50;2.97;;;16.10;99.90;;;;;;4194778;28;20211;-83
2022/05/21 08:56:27;;;;;;;5.10;2.97;;;16.20;99.90;;;;;;4195036;28;20246;-85
2022/05/21 08:58:35;;;;;;;5.13;2.17;;;16.20;99.90;;;;;;4196679;28;20236;-87
2022/05/21 09:00:41;;;;;;;7.60;2.50;;;16.30;99.90;;;;;;4195941;28;20210;-83
2022/05/21 09:02:48;;;;;;;4.17;2.20;;;16.40;99.90;;;;;;4190636;28;20206;-83
2022/05/21 09:04:50;;;;;;;5.77;2.23;;;16.40;99.90;;;;;;4188641;28;20507;-82
2022/05/21 09:06:56;;;;;;;3.87;2.00;;;16.50;99.90;;;;;;4186887;28;20213;-86
2022/05/21 09:09:08;;;;;;;3.40;1.67;;;16.50;99.90;;;;;;4196579;28;20205;-84
2022/05/21 09:11:14;;;;;;;6.40;1.70;;;16.50;99.90;;;;;;4194988;28;20231;-85
2022/05/21 09:13:20;;;;;;;2.77;1.60;;;16.60;99.90;;;;;;4192602;28;20198;-84
2022/05/21 09:17:43;;;;;;;3.33;1.57;;;16.50;99.90;;;;;;4194158;28;20233;-83
2022/05/21 09:19:50;;;;;;;4.40;1.90;;;16.40;99.90;;;;;;4196507;28;20255;-82
2022/05/21 09:21:59;;;;;;;2.97;1.83;;;16.50;99.90;;;;;;4196955;28;20212;-82
2022/05/21 09:24:03;;;;;;;4.37;1.90;;;16.50;99.90;;;;;;4197041;28;20207;-83
2022/05/21 09:26:07;;;;;;;4.03;2.13;;;16.40;99.90;;;;;;4191420;28;20202;-82
2022/05/21 09:28:11;;;;;;;5.97;2.40;;;16.50;99.90;;;;;;4195550;28;20289;-84
2022/05/21 09:30:21;;;;;;;3.40;1.93;;;16.70;99.90;;;;;;4210101;28;20661;-85
2022/05/21 09:32:30;;;;;;;3.40;1.83;;;16.30;99.90;;;;;;4194014;28;20212;-83
2022/05/21 09:34:35;;;;;;;5.07;2.80;;;16.30;99.90;;;;;;4191593;28;20288;-82
2022/05/21 09:36:39;;;;;;;3.27;2.20;;;16.30;99.90;;;;;;4194021;28;20222;-83
2022/05/21 09:38:51;;;;;;;6.57;2.60;;;16.30;99.90;;;;;;4210488;28;20228;-83
2022/05/21 09:41:06;;;;;;;5.57;2.17;;;16.30;99.90;;;;;;4193774;28;20683;-82
2022/05/21 09:45:38;;;;;;;5.40;1.90;;;16.50;99.90;;;;;;4197766;28;20201;-82
2022/05/21 09:47:40;;;;;;;6.00;2.10;;;16.60;99.90;;;;;;4194828;28;20228;-83
2022/05/21 09:49:43;;;;;;;4.03;2.10;;;16.60;99.90;;;;;;4213603;28;20211;-82
2022/05/21 09:51:56;;;;;;;7.87;2.20;;;16.60;99.90;;;;;;4198376;28;20259;-82
2022/05/21 09:53:59;;;;;;;6.70;2.40;;;16.70;99.90;;;;;;4214333;28;20299;-82
2022/05/21 09:56:04;;;;;;;5.60;2.60;;;16.60;99.90;;;;;;4195392;28;20206;-81
2022/05/21 09:58:10;;;;;;;5.27;2.10;;;16.50;99.90;;;;;;4213738;28;20233;-82
2022/05/21 10:00:21;;;;;;;3.47;2.20;;;16.60;99.90;;;;;;4195497;28;20255;-83
2022/05/21 10:02:23;;;;;;;4.63;2.20;;;16.60;99.90;;;;;;4197083;28;20197;-83
2022/05/21 10:04:32;;;;;;;4.60;2.07;;;16.60;99.90;;;;;;4196910;28;20460;-83
2022/05/21 10:06:42;;;;;;;2.77;2.10;;;16.70;99.90;;;;;;4213970;28;20200;-83
2022/05/21 10:11:15;;;;;;;4.27;2.50;;;16.90;99.90;;;;;;4188259;28;20292;-83
2022/05/21 10:13:20;;;;;;;3.87;2.10;;;16.80;99.90;;;;;;4208555;28;20205;-83
2022/05/21 10:15:28;;;;;;;4.47;2.37;;;16.90;99.90;;;;;;4206179;28;20737;-83
2022/05/21 10:17:34;;;;;;;4.13;2.03;;;16.90;99.90;;;;;;4195232;28;20298;-83
2022/05/21 10:19:46;;;;;;;4.00;2.00;;;17.00;99.90;;;;;;4195271;28;20651;-83
2022/05/21 10:21:59;;;;;;;4.10;2.00;;;17.00;99.90;;;;;;4196070;28;20209;-83
2022/05/21 10:24:08;;;;;;;9.67;2.17;;;17.10;99.90;;;;;;4195390;28;20240;-83
2022/05/21 10:26:35;;;;;;;3.97;2.03;;;17.20;99.90;;;;;;4210287;28;20291;-82
2022/05/21 10:28:47;;;;;;;7.20;2.37;;;17.20;99.90;;;;;;4194084;28;20240;-82
2022/05/21 10:31:13;;;;;;;5.33;1.63;;;17.10;99.90;;;;;;4194209;28;20205;-84
2022/05/21 10:33:27;;;;;;;8.83;2.00;;;17.20;99.90;;;;;;4210313;28;20200;-82
2022/05/21 10:35:42;;;;;;;7.27;2.70;;;17.30;99.90;;;;;;4193188;28;20659;-83
2022/05/21 10:37:58;;;;;;;4.47;2.20;;;17.20;99.90;;;;;;4194477;28;20264;-83
2022/05/21 10:40:26;;;;;;;2.17;1.77;;;17.20;99.90;;;;;;4193549;28;20690;-82
2022/05/21 10:42:39;;;;;;;5.67;2.03;;;17.30;99.90;;;;;;4194058;28;20210;-83
2022/05/21 10:44:54;;;;;;;3.07;1.67;;;17.40;99.90;;;;;;4185579;28;20239;-82
2022/05/21 10:47:04;;;;;;;4.03;1.67;;;17.60;99.90;;;;;;4185885;28;20301;-82
2022/05/21 10:49:46;;;;;;;4.43;1.83;;;17.70;99.90;;;;;;4190078;28;20210;-82
2022/05/21 10:52:00;;;;;;;3.90;1.70;;;17.80;99.90;;;;;;4190247;28;20659;-82
2022/05/21 10:54:25;;;;;;;3.87;1.70;;;17.90;99.90;;;;;;4191006;28;20204;-82
2022/05/21 10:56:45;;;;;;;4.20;1.87;;;17.90;99.90;;;;;;4184685;28;20761;-82
2022/05/21 10:59:02;;;;;;;3.57;1.67;;;17.90;99.90;;;;;;4194397;28;20237;-83
2022/05/21 11:01:14;;;;;;;5.60;1.40;;;17.90;99.90;;;;;;4188743;28;20843;-82
2022/05/21 11:03:40;;;;;;;4.00;1.63;;;18.10;99.90;;;;;;4208746;28;20206;-82
2022/05/21 11:06:01;;;;;;;3.37;1.93;;;18.30;99.90;;;;;;4188227;28;20771;-81
2022/05/21 11:08:12;;;;;;;5.67;1.73;;;18.60;99.90;;;;;;4199095;28;20735;-83
2022/05/21 11:10:26;;;;;;;2.17;1.60;;;18.70;99.90;;;;;;4193399;28;20203;-80
2022/05/21 11:12:36;;;;;;;2.63;1.50;;;18.80;99.90;;;;;;4186753;28;20208;-81